createdAt,value
2023-04-18T00:00:40.268Z,102838.16
2023-04-18T00:01:42.073Z,102834.66
2023-04-18T00:02:44.105Z,102836.38
2023-04-18T00:03:47.211Z,102825.91
2023-04-18T00:04:50.410Z,102830.22
2023-04-18T00:05:54.481Z,102836.22
2023-04-18T00:06:56.021Z,102840.56
2023-04-18T00:07:57.434Z,102836.19
2023-04-18T00:09:01.483Z,102835.28
2023-04-18T00:10:06.482Z,102838.78
2023-04-18T00:11:08.036Z,102832.69
2023-04-18T00:12:10.305Z,102831.78
2023-04-18T00:13:12.119Z,102834.38
2023-04-18T00:14:13.746Z,102829.06
2023-04-18T00:15:15.873Z,102828.19
2023-04-18T00:16:17.334Z,102822.84
2023-04-18T00:17:20.425Z,102835.06
2023-04-18T00:18:22.110Z,102835.84
2023-04-18T00:19:23.716Z,102832.38
2023-04-18T00:20:28.105Z,102835.78
2023-04-18T00:21:30.287Z,102831.41
2023-04-18T00:22:31.858Z,102833.97
2023-04-18T00:23:34.484Z,102829.59
2023-04-18T00:24:35.947Z,102832.16
2023-04-18T00:25:37.497Z,102827.81
2023-04-18T00:26:38.931Z,102831.25
2023-04-18T00:27:41.079Z,102835.53
2023-04-18T00:28:42.566Z,102834.63
2023-04-18T00:29:45.226Z,102836.34
2023-04-18T00:30:47.152Z,102834.56
2023-04-18T00:31:48.629Z,102830.19
2023-04-18T00:32:50.233Z,102829.28
2023-04-18T00:33:52.878Z,102837.06
2023-04-18T00:34:54.463Z,102833.53
2023-04-18T00:35:58.345Z,102830.88
2023-04-18T00:37:02.126Z,102831.72
2023-04-18T00:38:03.579Z,102834.25
2023-04-18T00:39:05.049Z,102831.59
2023-04-18T00:40:06.951Z,102828.97
2023-04-18T00:41:10.871Z,102835.00
2023-04-18T00:42:12.549Z,102832.34
2023-04-18T00:43:16.726Z,102837.50
2023-04-18T00:44:18.218Z,102839.09
2023-04-18T00:45:19.808Z,102835.53
2023-04-18T00:46:21.347Z,102835.44
2023-04-18T00:47:23.146Z,102832.84
2023-04-18T00:48:24.675Z,102834.47
2023-04-18T00:49:26.922Z,102837.97
2023-04-18T00:50:28.448Z,102830.09
2023-04-18T00:51:30.502Z,102827.50
2023-04-18T00:52:36.103Z,102828.34
2023-04-18T00:53:37.801Z,102828.34
2023-04-18T00:54:39.793Z,102828.34
2023-04-18T00:55:41.399Z,102831.78
2023-04-18T00:56:43.059Z,102830.00
2023-04-18T00:57:44.562Z,102824.81
2023-04-18T00:58:46.051Z,102827.34
2023-04-18T00:59:47.733Z,102824.72
2023-04-18T01:00:49.389Z,102827.22
2023-04-18T01:01:51.131Z,102827.16
2023-04-18T01:02:54.010Z,102827.94
2023-04-18T01:03:55.820Z,102828.75
2023-04-18T01:04:58.696Z,102826.06
2023-04-18T01:06:01.090Z,102825.13
2023-04-18T01:07:03.266Z,102827.66
2023-04-18T01:08:04.780Z,102821.59
2023-04-18T01:09:12.104Z,102822.38
2023-04-18T01:10:15.866Z,102822.31
2023-04-18T01:11:17.357Z,102823.13
2023-04-18T01:12:21.545Z,102824.88
2023-04-18T01:13:23.171Z,102821.31
2023-04-18T01:14:24.674Z,102823.84
2023-04-18T01:15:26.136Z,102829.06
2023-04-18T01:16:28.452Z,102819.44
2023-04-18T01:17:30.460Z,102828.09
2023-04-18T01:18:32.359Z,102826.31
2023-04-18T01:19:36.131Z,102830.63
2023-04-18T01:20:41.312Z,102822.75
2023-04-18T01:21:46.090Z,102821.00
2023-04-18T01:22:48.484Z,102819.28
2023-04-18T01:23:50.673Z,102822.72
2023-04-18T01:24:52.117Z,102826.16
2023-04-18T01:25:53.511Z,102825.25
2023-04-18T01:26:55.201Z,102826.97
2023-04-18T01:27:58.782Z,102826.09
2023-04-18T01:29:02.183Z,102826.03
2023-04-18T01:30:05.209Z,102825.16
2023-04-18T01:31:06.660Z,102822.56
2023-04-18T01:32:11.280Z,102822.44
2023-04-18T01:33:12.727Z,102825.88
2023-04-18T01:34:16.811Z,102822.28
2023-04-18T01:35:18.420Z,102817.94
2023-04-18T01:36:20.122Z,102823.94
2023-04-18T01:37:21.817Z,102824.72
2023-04-18T01:38:23.386Z,102819.47
2023-04-18T01:39:24.838Z,102824.56
2023-04-18T01:40:28.589Z,102817.59
2023-04-18T01:41:32.538Z,102821.84
2023-04-18T01:42:34.401Z,102817.47
2023-04-18T01:43:36.098Z,102817.44
2023-04-18T01:44:38.355Z,102819.13
2023-04-18T01:45:39.921Z,102818.25
2023-04-18T01:46:43.554Z,102819.91
2023-04-18T01:47:45.177Z,102821.63
2023-04-18T01:48:46.604Z,102815.50
2023-04-18T01:49:48.452Z,102818.03
2023-04-18T01:50:50.275Z,102818.00
2023-04-18T01:51:51.706Z,102819.63
2023-04-18T01:52:55.659Z,102822.16
2023-04-18T01:53:57.123Z,102820.41
2023-04-18T01:54:59.507Z,102823.81
2023-04-18T01:56:01.079Z,102816.81
2023-04-18T01:57:03.376Z,102816.78
2023-04-18T01:58:05.051Z,102812.34
2023-04-18T01:59:06.658Z,102810.56
2023-04-18T02:00:08.597Z,102813.97
2023-04-18T02:01:21.086Z,102813.06
2023-04-18T02:02:22.619Z,102819.94
2023-04-18T02:03:24.790Z,102819.88
2023-04-18T02:04:27.272Z,102813.75
2023-04-18T02:05:28.783Z,102812.00
2023-04-18T02:06:30.804Z,102818.00
2023-04-18T02:07:33.419Z,102815.41
2023-04-18T02:08:35.931Z,102815.34
2023-04-18T02:09:39.347Z,102815.34
2023-04-18T02:10:41.413Z,102811.88
2023-04-18T02:11:42.824Z,102807.50
2023-04-18T02:12:44.467Z,102814.41
2023-04-18T02:13:46.030Z,102815.25
2023-04-18T02:14:50.952Z,102811.78
2023-04-18T02:15:53.640Z,102808.28
2023-04-18T02:16:55.183Z,102815.25
2023-04-18T02:17:56.825Z,102810.00
2023-04-18T02:18:58.352Z,102805.69
2023-04-18T02:19:59.859Z,102809.94
2023-04-18T02:21:01.969Z,102810.00
2023-04-18T02:22:03.390Z,102814.28
2023-04-18T02:23:06.113Z,102814.22
2023-04-18T02:24:07.509Z,102808.16
2023-04-18T02:25:09.263Z,102805.56
2023-04-18T02:26:10.920Z,102813.31
2023-04-18T02:27:12.481Z,102808.94
2023-04-18T02:28:16.239Z,102813.25
2023-04-18T02:29:17.747Z,102813.25
2023-04-18T02:30:19.242Z,102814.94
2023-04-18T02:31:20.778Z,102820.97
2023-04-18T02:32:22.240Z,102810.59
2023-04-18T02:33:23.720Z,102807.94
2023-04-18T02:34:26.652Z,102809.69
2023-04-18T02:35:29.150Z,102802.81
2023-04-18T02:36:31.009Z,102805.41
2023-04-18T02:37:32.456Z,102804.50
2023-04-18T02:38:33.859Z,102803.56
2023-04-18T02:39:35.480Z,102809.53
2023-04-18T02:40:36.908Z,102808.59
2023-04-18T02:41:39.396Z,102808.47
2023-04-18T02:42:43.156Z,102813.66
2023-04-18T02:43:48.031Z,102808.41
2023-04-18T02:44:51.085Z,102817.97
2023-04-18T02:45:52.965Z,102815.31
2023-04-18T02:46:54.634Z,102813.59
2023-04-18T02:47:56.802Z,102805.81
2023-04-18T02:48:58.565Z,102813.59
2023-04-18T02:50:00.241Z,102815.38
2023-04-18T02:51:06.302Z,102815.38
2023-04-18T02:52:09.816Z,102817.09
2023-04-18T02:53:11.378Z,102814.41
2023-04-18T02:54:30.652Z,102817.91
2023-04-18T02:55:40.612Z,102816.13
2023-04-18T02:56:42.855Z,102816.13
2023-04-18T02:57:57.008Z,102814.34
2023-04-18T02:59:32.162Z,102816.13
2023-04-18T03:00:34.289Z,102816.13
2023-04-18T03:01:53.789Z,102817.00
2023-04-18T03:02:57.243Z,102823.91
2023-04-18T03:04:11.346Z,102819.59
2023-04-18T03:05:17.368Z,102827.38
2023-04-18T03:06:19.143Z,102821.38
2023-04-18T03:07:22.104Z,102823.97
2023-04-18T03:08:25.734Z,102823.09
2023-04-18T03:09:27.574Z,102829.16
2023-04-18T03:10:33.862Z,102820.44
2023-04-18T03:11:35.598Z,102822.19
2023-04-18T03:12:37.179Z,102819.59
2023-04-18T03:13:39.181Z,102824.78
2023-04-18T03:14:40.875Z,102823.91
2023-04-18T03:15:42.488Z,102828.22
2023-04-18T03:16:44.998Z,102823.91
2023-04-18T03:17:50.423Z,102821.25
2023-04-18T03:18:56.368Z,102818.66
2023-04-18T03:19:58.162Z,102823.81
2023-04-18T03:22:03.567Z,102820.25
2023-04-18T03:23:05.457Z,102815.91
2023-04-18T03:24:07.127Z,102828.03
2023-04-18T03:25:12.313Z,102824.50
2023-04-18T03:26:17.640Z,102827.09
2023-04-18T03:27:20.574Z,102820.94
2023-04-18T03:28:22.703Z,102830.50
2023-04-18T03:29:24.766Z,102827.84
2023-04-18T03:30:28.193Z,102834.75
2023-04-18T03:31:33.450Z,102832.13
2023-04-18T03:32:36.428Z,102831.22
2023-04-18T03:33:39.338Z,102826.03
2023-04-18T03:34:44.559Z,102833.81
2023-04-18T03:35:46.438Z,102836.34
2023-04-18T03:36:48.324Z,102829.38
2023-04-18T03:37:51.768Z,102834.50
2023-04-18T03:39:00.794Z,102839.69
2023-04-18T03:40:02.388Z,102834.50
2023-04-18T03:41:05.132Z,102843.13
2023-04-18T03:42:09.382Z,102840.59
2023-04-18T03:43:13.929Z,102840.53
2023-04-18T03:44:17.654Z,102844.00
2023-04-18T03:45:20.003Z,102843.13
2023-04-18T03:46:24.642Z,102845.72
2023-04-18T03:47:29.481Z,102843.94
2023-04-18T03:48:35.885Z,102844.81
2023-04-18T03:49:41.363Z,102835.34
2023-04-18T03:50:43.250Z,102846.53
2023-04-18T03:51:52.017Z,102855.13
2023-04-18T03:52:53.670Z,102853.38
2023-04-18T03:53:55.210Z,102853.31
2023-04-18T03:54:57.947Z,102851.53
2023-04-18T03:56:04.775Z,102848.88
2023-04-18T03:57:26.796Z,102855.78
2023-04-18T03:58:28.415Z,102852.31
2023-04-18T03:59:30.921Z,102854.97
2023-04-18T04:00:32.423Z,102857.56
2023-04-18T04:01:39.945Z,102857.56
2023-04-18T04:02:41.606Z,102859.25
2023-04-18T04:03:47.346Z,102861.03
2023-04-18T04:04:49.722Z,102861.03
2023-04-18T04:05:51.420Z,102861.03
2023-04-18T04:06:53.301Z,102865.34
2023-04-18T04:07:55.018Z,102869.63
2023-04-18T04:08:57.763Z,102865.28
2023-04-18T04:10:01.187Z,102861.78
2023-04-18T04:11:02.885Z,102866.97
2023-04-18T04:12:04.719Z,102865.22
2023-04-18T04:13:06.989Z,102862.63
2023-04-18T04:14:11.329Z,102865.22
2023-04-18T04:15:17.701Z,102866.09
2023-04-18T04:16:25.616Z,102864.31
2023-04-18T04:17:29.483Z,102866.91
2023-04-18T04:18:31.413Z,102864.31
2023-04-18T04:19:35.420Z,102857.34
2023-04-18T04:20:45.446Z,102871.22
2023-04-18T04:21:51.815Z,102867.81
2023-04-18T04:22:53.838Z,102863.44
2023-04-18T04:23:57.001Z,102866.84
2023-04-18T04:25:07.560Z,102869.38
2023-04-18T04:26:15.066Z,102871.97
2023-04-18T04:27:26.903Z,102871.84
2023-04-18T04:28:28.717Z,102871.84
2023-04-18T04:29:36.123Z,102869.25
2023-04-18T04:30:38.223Z,102869.22
2023-04-18T04:31:42.120Z,102873.53
2023-04-18T04:32:46.908Z,102874.41
2023-04-18T04:33:48.901Z,102876.09
2023-04-18T04:34:53.640Z,102873.50
2023-04-18T04:35:56.434Z,102873.50
2023-04-18T04:36:58.819Z,102875.22
2023-04-18T04:38:02.146Z,102875.22
2023-04-18T04:39:12.833Z,102881.25
2023-04-18T04:40:25.547Z,102882.13
2023-04-18T04:41:31.630Z,102879.56
2023-04-18T04:42:33.467Z,102882.16
2023-04-18T04:43:42.753Z,102882.16
2023-04-18T04:44:47.210Z,102884.75
2023-04-18T04:45:52.505Z,102879.56
2023-04-18T04:46:57.593Z,102879.63
2023-04-18T04:48:08.619Z,102879.63
2023-04-18T04:49:11.550Z,102887.47
2023-04-18T04:50:15.513Z,102882.28
2023-04-18T04:51:16.941Z,102882.34
2023-04-18T04:52:18.508Z,102890.19
2023-04-18T04:53:20.689Z,102886.78
2023-04-18T04:54:22.457Z,102889.38
2023-04-18T04:55:24.522Z,102890.38
2023-04-18T04:56:26.256Z,102884.38
2023-04-18T04:57:27.719Z,102885.31
2023-04-18T04:58:29.738Z,102881.06
2023-04-18T04:59:51.320Z,102890.75
2023-04-18T05:00:53.614Z,102885.69
2023-04-18T05:01:55.461Z,102891.84
2023-04-18T05:02:57.663Z,102891.94
2023-04-18T05:04:03.836Z,102897.31
2023-04-18T05:05:05.971Z,102893.97
2023-04-18T05:06:07.673Z,102894.06
2023-04-18T05:07:09.348Z,102894.22
2023-04-18T05:08:11.321Z,102896.06
2023-04-18T05:09:13.564Z,102895.38
2023-04-18T05:10:15.202Z,102897.22
2023-04-18T05:11:17.022Z,102891.25
2023-04-18T05:12:18.539Z,102889.75
2023-04-18T05:13:20.530Z,102895.84
2023-04-18T05:14:22.006Z,102891.69
2023-04-18T05:15:24.318Z,102892.66
2023-04-18T05:16:26.289Z,102896.28
2023-04-18T05:17:29.293Z,102897.16
2023-04-18T05:18:32.093Z,102895.56
2023-04-18T05:19:38.128Z,102895.69
2023-04-18T05:20:40.160Z,102889.66
2023-04-18T05:21:41.695Z,102894.91
2023-04-18T05:22:43.247Z,102889.84
2023-04-18T05:23:47.250Z,102893.38
2023-04-18T05:24:49.566Z,102899.50
2023-04-18T05:25:51.206Z,102896.97
2023-04-18T05:26:53.231Z,102897.03
2023-04-18T05:27:57.922Z,102897.97
2023-04-18T05:28:59.593Z,102887.66
2023-04-18T05:30:01.262Z,102889.44
2023-04-18T05:31:02.784Z,102898.97
2023-04-18T05:32:04.502Z,102898.13
2023-04-18T05:33:06.051Z,102890.41
2023-04-18T05:34:09.403Z,102894.78
2023-04-18T05:35:12.098Z,102892.28
2023-04-18T05:36:13.620Z,102892.34
2023-04-18T05:37:15.435Z,102894.13
2023-04-18T05:38:16.909Z,102891.56
2023-04-18T05:39:18.513Z,102889.88
2023-04-18T05:40:19.876Z,102894.28
2023-04-18T05:41:21.339Z,102892.63
2023-04-18T05:42:23.569Z,102893.56
2023-04-18T05:43:25.528Z,102896.25
2023-04-18T05:44:27.070Z,102886.78
2023-04-18T05:45:28.575Z,102886.88
2023-04-18T05:46:30.348Z,102889.53
2023-04-18T05:47:33.676Z,102888.72
2023-04-18T05:48:37.934Z,102895.75
2023-04-18T05:49:39.449Z,102897.56
2023-04-18T05:50:40.906Z,102894.13
2023-04-18T05:51:45.412Z,102907.19
2023-04-18T05:52:48.610Z,102897.72
2023-04-18T05:53:50.481Z,102897.78
2023-04-18T05:54:52.780Z,102899.59
2023-04-18T05:55:56.615Z,102907.44
2023-04-18T05:56:58.565Z,102900.59
2023-04-18T05:58:00.381Z,102904.13
2023-04-18T05:59:05.171Z,102903.34
2023-04-18T06:00:12.167Z,102897.38
2023-04-18T06:01:18.500Z,102907.13
2023-04-18T06:02:23.328Z,102911.59
2023-04-18T06:03:27.594Z,102910.88
2023-04-18T06:04:29.787Z,102908.41
2023-04-18T06:05:32.066Z,102905.97
2023-04-18T06:06:41.336Z,102906.97
2023-04-18T06:07:43.066Z,102905.38
2023-04-18T06:08:47.433Z,102909.94
2023-04-18T06:09:52.282Z,102905.72
2023-04-18T06:10:53.683Z,102905.88
2023-04-18T06:11:55.369Z,102915.59
2023-04-18T06:12:56.752Z,102912.22
2023-04-18T06:13:58.238Z,102912.38
2023-04-18T06:14:59.950Z,102917.72
2023-04-18T06:16:01.471Z,102917.94
2023-04-18T06:17:02.946Z,102917.19
2023-04-18T06:18:04.576Z,102921.72
2023-04-18T06:19:06.100Z,102924.47
2023-04-18T06:20:08.128Z,102921.13
2023-04-18T06:21:09.621Z,102923.03
2023-04-18T06:22:11.060Z,102922.34
2023-04-18T06:23:12.689Z,102914.63
2023-04-18T06:24:14.544Z,102921.72
2023-04-18T06:25:16.574Z,102921.00
2023-04-18T06:26:18.055Z,102923.75
2023-04-18T06:27:30.612Z,102915.22
2023-04-18T06:28:33.014Z,102923.16
2023-04-18T06:29:36.047Z,102921.50
2023-04-18T06:30:38.288Z,102920.66
2023-04-18T06:31:39.895Z,102927.81
2023-04-18T06:32:41.435Z,102915.75
2023-04-18T06:33:42.906Z,102923.66
2023-04-18T06:34:44.832Z,102916.75
2023-04-18T06:35:46.344Z,102919.47
2023-04-18T06:36:47.790Z,102916.94
2023-04-18T06:37:49.604Z,102916.16
2023-04-18T06:38:51.312Z,102922.38
2023-04-18T06:39:52.703Z,102923.38
2023-04-18T06:40:54.132Z,102913.00
2023-04-18T06:41:56.902Z,102923.50
2023-04-18T06:43:02.980Z,102920.06
2023-04-18T06:44:04.933Z,102924.53
2023-04-18T06:45:06.838Z,102920.31
2023-04-18T06:46:08.473Z,102923.06
2023-04-18T06:47:10.610Z,102923.19
2023-04-18T06:48:12.296Z,102921.56
2023-04-18T06:49:13.945Z,102919.94
2023-04-18T06:50:15.913Z,102921.81
2023-04-18T06:51:17.358Z,102920.13
2023-04-18T06:52:21.066Z,102924.50
2023-04-18T06:53:22.662Z,102921.19
2023-04-18T06:54:24.487Z,102924.81
2023-04-18T06:55:25.984Z,102924.84
2023-04-18T06:56:27.497Z,102930.13
2023-04-18T06:57:28.926Z,102931.19
2023-04-18T06:58:30.706Z,102928.69
2023-04-18T06:59:32.257Z,102929.66
2023-04-18T07:00:33.834Z,102934.13
2023-04-18T07:01:41.743Z,102922.91
2023-04-18T07:02:43.706Z,102938.66
2023-04-18T07:03:46.001Z,102930.75
2023-04-18T07:04:48.577Z,102929.84
2023-04-18T07:05:51.529Z,102929.84
2023-04-18T07:06:53.147Z,102932.53
2023-04-18T07:07:54.729Z,102930.84
2023-04-18T07:09:01.904Z,102931.00
2023-04-18T07:10:03.761Z,102931.00
2023-04-18T07:11:06.062Z,102931.94
2023-04-18T07:12:07.663Z,102933.78
2023-04-18T07:13:09.567Z,102926.88
2023-04-18T07:14:12.244Z,102938.34
2023-04-18T07:15:14.217Z,102933.22
2023-04-18T07:16:15.894Z,102934.16
2023-04-18T07:17:17.941Z,102937.63
2023-04-18T07:18:30.329Z,102928.97
2023-04-18T07:19:36.216Z,102939.53
2023-04-18T07:20:37.845Z,102937.94
2023-04-18T07:21:40.632Z,102931.06
2023-04-18T07:22:42.294Z,102925.06
2023-04-18T07:23:43.750Z,102935.63
2023-04-18T07:24:45.547Z,102940.09
2023-04-18T07:25:47.065Z,102932.31
2023-04-18T07:26:48.477Z,102938.47
2023-04-18T07:27:50.424Z,102935.84
2023-04-18T07:28:52.034Z,102935.88
2023-04-18T07:29:53.527Z,102933.28
2023-04-18T07:30:56.852Z,102935.09
2023-04-18T07:31:59.016Z,102932.50
2023-04-18T07:33:00.666Z,102935.94
2023-04-18T07:34:02.229Z,102934.22
2023-04-18T07:35:04.525Z,102932.56
2023-04-18T07:36:06.146Z,102931.75
2023-04-18T07:37:07.603Z,102938.75
2023-04-18T07:38:09.536Z,102933.59
2023-04-18T07:39:11.177Z,102931.94
2023-04-18T07:40:12.847Z,102932.06
2023-04-18T07:41:14.609Z,102940.81
2023-04-18T07:42:16.093Z,102932.97
2023-04-18T07:43:18.403Z,102928.66
2023-04-18T07:44:21.902Z,102930.41
2023-04-18T07:45:23.371Z,102937.34
2023-04-18T07:46:24.994Z,102939.97
2023-04-18T07:47:29.407Z,102928.59
2023-04-18T07:48:31.614Z,102939.94
2023-04-18T07:49:34.065Z,102941.75
2023-04-18T07:50:35.654Z,102942.56
2023-04-18T07:51:37.176Z,102946.06
2023-04-18T07:52:39.639Z,102940.00
2023-04-18T07:53:41.268Z,102939.09
2023-04-18T07:54:42.834Z,102939.13
2023-04-18T07:55:45.157Z,102938.34
2023-04-18T07:56:46.883Z,102948.84
2023-04-18T07:57:50.478Z,102946.25
2023-04-18T07:58:53.047Z,102943.66
2023-04-18T07:59:54.865Z,102941.03
2023-04-18T08:00:56.885Z,102939.28
2023-04-18T08:01:58.537Z,102941.81
2023-04-18T08:03:00.281Z,102939.25
2023-04-18T08:04:02.163Z,102938.44
2023-04-18T08:05:04.047Z,102934.19
2023-04-18T08:06:06.094Z,102938.66
2023-04-18T08:07:07.517Z,102936.97
2023-04-18T08:08:11.735Z,102930.06
2023-04-18T08:09:13.486Z,102940.53
2023-04-18T08:10:15.625Z,102930.22
2023-04-18T08:11:17.356Z,102939.09
2023-04-18T08:12:18.984Z,102934.88
2023-04-18T08:13:21.702Z,102930.69
2023-04-18T08:14:23.575Z,102931.59
2023-04-18T08:15:25.327Z,102949.06
2023-04-18T08:16:27.369Z,102940.34
2023-04-18T08:17:29.107Z,102952.44
2023-04-18T08:18:30.741Z,102951.59
2023-04-18T08:19:32.355Z,102946.41
2023-04-18T08:20:35.955Z,102955.16
2023-04-18T08:21:37.929Z,102951.69
2023-04-18T08:22:50.431Z,102949.09
2023-04-18T08:24:01.576Z,102948.22
2023-04-18T08:25:05.560Z,102959.50
2023-04-18T08:26:07.686Z,102953.47
2023-04-18T08:27:09.351Z,102948.28
2023-04-18T08:28:10.976Z,102952.69
2023-04-18T08:29:12.946Z,102951.84
2023-04-18T08:30:15.327Z,102951.06
2023-04-18T08:31:17.245Z,102956.31
2023-04-18T08:32:18.855Z,102963.38
2023-04-18T08:33:21.944Z,102962.41
2023-04-18T08:34:23.744Z,102962.38
2023-04-18T08:35:25.627Z,102965.00
2023-04-18T08:36:27.853Z,102971.03
2023-04-18T08:37:30.323Z,102963.19
2023-04-18T08:38:31.955Z,102956.28
2023-04-18T08:39:33.685Z,102961.50
2023-04-18T08:40:35.490Z,102962.41
2023-04-18T08:41:45.937Z,102966.91
2023-04-18T08:42:50.256Z,102962.66
2023-04-18T08:43:52.017Z,102955.78
2023-04-18T08:44:54.205Z,102961.13
2023-04-18T08:45:58.534Z,102954.28
2023-04-18T08:47:03.574Z,102966.59
2023-04-18T08:48:05.282Z,102944.72
2023-04-18T08:49:07.065Z,102960.34
2023-04-18T08:50:09.655Z,102969.00
2023-04-18T08:51:11.392Z,102957.69
2023-04-18T08:52:14.149Z,102960.31
2023-04-18T08:53:17.784Z,102953.34
2023-04-18T08:54:20.921Z,102957.81
2023-04-18T08:55:22.485Z,102959.56
2023-04-18T08:56:27.574Z,102956.97
2023-04-18T08:57:31.026Z,102963.16
2023-04-18T08:58:33.924Z,102966.59
2023-04-18T08:59:36.213Z,102960.53
2023-04-18T09:00:37.825Z,102968.41
2023-04-18T09:02:01.502Z,102961.44
2023-04-18T09:03:06.259Z,102958.91
2023-04-18T09:04:08.127Z,102965.00
2023-04-18T09:05:21.274Z,102965.03
2023-04-18T09:06:22.973Z,102966.00
2023-04-18T09:07:31.065Z,102972.16
2023-04-18T09:08:32.625Z,102962.66
2023-04-18T09:09:43.493Z,102958.41
2023-04-18T09:10:47.728Z,102962.84
2023-04-18T09:11:49.626Z,102958.53
2023-04-18T09:12:52.421Z,102956.88
2023-04-18T09:13:56.319Z,102962.13
2023-04-18T09:15:20.420Z,102969.19
2023-04-18T09:16:23.370Z,102973.72
2023-04-18T09:17:32.616Z,102978.97
2023-04-18T09:18:34.523Z,102971.00
2023-04-18T09:19:36.508Z,102978.81
2023-04-18T09:20:43.604Z,102977.03
2023-04-18T09:21:48.791Z,102974.28
2023-04-18T09:22:57.687Z,102979.47
2023-04-18T09:24:15.873Z,102970.66
2023-04-18T09:25:29.600Z,102981.03
2023-04-18T09:26:37.028Z,102980.09
2023-04-18T09:27:38.635Z,102977.34
2023-04-18T09:28:41.328Z,102971.25
2023-04-18T09:29:46.275Z,102971.25
2023-04-18T09:30:48.740Z,102973.03
2023-04-18T09:31:57.730Z,102978.16
2023-04-18T09:33:00.562Z,102967.72
2023-04-18T09:34:03.500Z,102968.72
2023-04-18T09:35:05.660Z,102966.13
2023-04-18T09:36:20.072Z,102966.28
2023-04-18T09:37:21.918Z,102963.84
2023-04-18T09:38:38.845Z,102967.47
2023-04-18T09:39:42.618Z,102965.00
2023-04-18T09:40:44.807Z,102966.91
2023-04-18T09:41:58.642Z,102959.97
2023-04-18T09:43:00.607Z,102968.78
2023-04-18T09:44:12.530Z,102974.03
2023-04-18T09:45:16.506Z,102968.81
2023-04-18T09:46:18.376Z,102957.38
2023-04-18T09:47:19.901Z,102968.53
2023-04-18T09:48:21.952Z,102967.59
2023-04-18T09:49:23.604Z,102968.53
2023-04-18T09:50:25.386Z,102972.81
2023-04-18T09:51:27.167Z,102975.38
2023-04-18T09:52:32.867Z,102979.69
2023-04-18T09:53:38.065Z,102975.25
2023-04-18T09:54:39.851Z,102980.41
2023-04-18T09:55:42.364Z,102977.75
2023-04-18T09:56:44.885Z,102976.81
2023-04-18T09:57:47.405Z,102976.00
2023-04-18T09:58:50.580Z,102969.84
2023-04-18T09:59:55.028Z,102977.66
2023-04-18T10:00:57.053Z,102977.66
2023-04-18T10:01:59.628Z,102975.97
2023-04-18T10:03:06.076Z,102967.28
2023-04-18T10:04:08.151Z,102969.06
2023-04-18T10:05:11.286Z,102976.06
2023-04-18T10:06:15.961Z,102978.72
2023-04-18T10:07:17.904Z,102984.78
2023-04-18T10:08:19.768Z,102982.03
2023-04-18T10:09:22.370Z,102979.38
2023-04-18T10:10:27.744Z,102978.41
2023-04-18T10:11:30.681Z,102973.06
2023-04-18T10:12:32.794Z,102973.13
2023-04-18T10:13:34.691Z,102973.13
2023-04-18T10:14:37.358Z,102990.50
2023-04-18T10:15:39.987Z,102972.97
2023-04-18T10:16:45.477Z,102977.34
2023-04-18T10:19:20.731Z,102977.28
2023-04-18T10:20:23.848Z,102982.50
2023-04-18T10:21:28.639Z,102973.72
2023-04-18T10:22:30.774Z,102973.75
2023-04-18T10:23:32.428Z,102974.66
2023-04-18T10:25:00.567Z,102974.63
2023-04-18T10:26:03.100Z,102971.13
2023-04-18T10:27:05.017Z,102975.47
2023-04-18T10:28:09.804Z,102972.00
2023-04-18T10:29:11.622Z,102972.03
2023-04-18T10:30:13.992Z,102982.59
2023-04-18T10:31:16.346Z,102973.88
2023-04-18T10:32:19.119Z,102981.78
2023-04-18T10:33:42.519Z,102975.78
2023-04-18T10:34:46.129Z,102967.94
2023-04-18T10:35:57.492Z,102969.75
2023-04-18T10:37:05.535Z,102972.56
2023-04-18T10:38:16.600Z,102964.66
2023-04-18T10:39:22.436Z,102963.03
2023-04-18T10:40:34.753Z,102970.97
2023-04-18T10:41:48.842Z,102976.84
2023-04-18T10:42:51.472Z,102970.66
2023-04-18T10:44:06.329Z,102973.16
2023-04-18T10:45:24.782Z,102976.69
2023-04-18T10:46:32.238Z,102969.50
2023-04-18T10:47:34.942Z,102967.81
2023-04-18T10:48:39.411Z,102968.69
2023-04-18T10:49:52.859Z,102974.00
2023-04-18T10:51:13.420Z,102967.00
2023-04-18T10:52:15.714Z,102967.94
2023-04-18T10:53:17.307Z,102966.28
2023-04-18T10:54:35.915Z,102970.75
2023-04-18T10:55:40.717Z,102966.38
2023-04-18T10:56:51.251Z,102960.34
2023-04-18T10:57:56.116Z,102964.75
2023-04-18T10:59:01.466Z,102969.19
2023-04-18T11:00:04.545Z,102975.34
2023-04-18T11:01:06.488Z,102966.44
2023-04-18T11:02:14.456Z,102966.44
2023-04-18T11:03:16.189Z,102971.56
2023-04-18T11:04:18.476Z,102971.50
2023-04-18T11:05:22.120Z,102968.91
2023-04-18T11:06:23.833Z,102970.72
2023-04-18T11:07:36.732Z,102976.03
2023-04-18T11:08:38.203Z,102968.28
2023-04-18T11:09:39.869Z,102971.81
2023-04-18T11:10:41.327Z,102965.72
2023-04-18T11:11:44.927Z,102969.28
2023-04-18T11:12:49.383Z,102984.09
2023-04-18T11:13:58.259Z,102970.13
2023-04-18T11:15:01.444Z,102978.84
2023-04-18T11:16:03.421Z,102971.81
2023-04-18T11:17:21.933Z,102982.38
2023-04-18T11:18:23.918Z,102967.41
2023-04-18T11:19:25.646Z,102972.78
2023-04-18T11:20:27.630Z,102971.03
2023-04-18T11:21:30.836Z,102966.72
2023-04-18T11:22:32.743Z,102969.38
2023-04-18T11:23:34.639Z,102965.91
2023-04-18T11:24:36.579Z,102968.47
2023-04-18T11:25:40.593Z,102965.06
2023-04-18T11:26:44.650Z,102964.28
2023-04-18T11:27:47.104Z,102965.16
2023-04-18T11:28:54.720Z,102965.25
2023-04-18T11:29:56.840Z,102967.94
2023-04-18T11:30:59.540Z,102964.53
2023-04-18T11:32:01.048Z,102962.88
2023-04-18T11:33:06.385Z,102970.63
2023-04-18T11:34:07.818Z,102967.91
2023-04-18T11:35:10.606Z,102965.09
2023-04-18T11:36:12.741Z,102956.41
2023-04-18T11:37:15.543Z,102967.75
2023-04-18T11:38:17.118Z,102972.94
2023-04-18T11:39:19.344Z,102960.69
2023-04-18T11:40:21.066Z,102958.13
2023-04-18T11:41:25.677Z,102973.94
2023-04-18T11:42:28.601Z,102966.94
2023-04-18T11:43:30.485Z,102961.69
2023-04-18T11:44:33.096Z,102964.28
2023-04-18T11:45:36.109Z,102958.22
2023-04-18T11:46:40.361Z,102957.47
2023-04-18T11:47:46.320Z,102967.16
2023-04-18T11:48:50.471Z,102959.25
2023-04-18T11:50:02.338Z,102961.03
2023-04-18T11:51:04.957Z,102961.97
2023-04-18T11:52:11.429Z,102955.91
2023-04-18T11:53:13.014Z,102956.00
2023-04-18T11:54:33.725Z,102956.91
2023-04-18T11:55:35.867Z,102954.28
2023-04-18T11:56:46.267Z,102943.91
2023-04-18T11:57:51.423Z,102952.72
2023-04-18T11:58:53.047Z,102950.13
2023-04-18T11:59:56.757Z,102948.47
2023-04-18T12:00:58.551Z,102944.97
2023-04-18T12:02:14.845Z,102955.56
2023-04-18T12:03:18.900Z,102942.44
2023-04-18T12:04:21.330Z,102940.78
2023-04-18T12:05:30.716Z,102952.19
2023-04-18T12:06:52.827Z,102946.91
2023-04-18T12:07:54.924Z,102946.97
2023-04-18T12:09:00.726Z,102950.50